• Join FlightAware (Why Join?)
  • Login
  • US Flag 
04:50AM EDT


 

Airport Tracker/Info


-or-


 

Live Flight TrackerFlight Track Log ✈ SWA127 ✈ 22-Apr-2013 ✈ KHOU - KHRL

Flight Track Log - Related Links

Times and Time Zones

All times are in EDT time to prevent confusion due to time zone crossing. See the SWA127 flight status page for this flight to view local times or setup timezone preferences in your user account.

Time Position Orientation Groundspeed Altitude Reporting Facility
EDT Latitude Longitude Course Direction KTS MPH feet Rate Location/Type
11:37AM 29.6583 -95.2647 96° East 164 189 800  Level Houston Center
11:38AM 29.6558 -95.2386 96° East 158 182 2,000 1,680 Climbing Houston Center
11:39AM 29.6006 -95.2314 174° South 214 246 3,800 2,040 Climbing Houston Center
11:40AM 29.5158 -95.2289 179° South 258 297 6,500 2,460 Climbing Houston Center
11:41AM 29.4369 -95.2367 185° South 287 330 9,000 1,980 Climbing Houston Center
11:42AM 29.3547 -95.2603 194° South 315 362 10,700 2,220 Climbing Houston Center
11:43AM 29.2794 -95.3303 219° Southwest 345 397 13,700 2,580 Climbing Houston Center
11:44AM 29.2064 -95.3978 219° Southwest 339 390 16,100 1,620 Climbing Houston Center
11:45AM 29.1447 -95.5200 240° Southwest 372 428 17,100 1,440 Climbing Houston Center
11:46AM 29.0783 -95.6092 230° Southwest 370 426 19,100 1,980 Climbing Houston Center
11:47AM 29.0042 -95.6989 227° Southwest 386 444 21,300 2,040 Climbing Houston Center
11:48AM 28.9286 -95.7919 227° Southwest 396 456 23,400 1,800 Climbing Houston Center
11:49AM 28.8528 -95.8850 227° Southwest 401 461 25,100 1,680 Climbing Houston Center
11:50AM 28.7689 -95.9892 227° Southwest 416 479 26,900 1,680 Climbing Houston Center
11:51AM 28.6894 -96.0858 227° Southwest 417 480 28,700 1,860 Climbing Houston Center
11:52AM 28.6106 -96.1819 227° Southwest 414 476 30,800 1,560 Climbing Houston Center
11:53AM 28.5211 -96.2914 227° Southwest 397 457 32,000 540 Climbing Houston Center
11:54AM 28.4450 -96.3842 227° Southwest 397 457 32,000  Level Houston Center
11:55AM 28.3700 -96.4769 227° Southwest 398 458 32,000  Level Houston Center
11:57AM 28.2936 -96.5672 226° Southwest 397 457 32,000  Level Houston Center
11:58AM 28.2186 -96.6575 227° Southwest 393 452 32,000  Level Houston Center
11:59AM 28.1433 -96.7481 227° Southwest 394 453 32,000  Level Houston Center
12:00PM 28.0514 -96.8208 215° Southwest 408 470 32,000  Level Houston Center
12:01PM 27.9236 -96.8828 203° Southwest 414 476 32,000  Level Houston Center
12:02PM 27.8164 -96.9339 203° Southwest 417 480 32,000 -60 Level Houston Center
12:03PM 27.7097 -96.9867 204° Southwest 418 481 31,900 -1,500 Descending Houston Center
12:04PM 27.6025 -97.0394 204° Southwest 418 481 29,000 -2,640 Descending Houston Center
12:05PM 27.4950 -97.0867 201° Southwest 416 479 26,500 -2,460 Descending Houston Center
12:06PM 27.3764 -97.1103 190° South 407 468 24,000 -2,340 Descending Houston Center
12:07PM 27.2700 -97.1381 193° South 397 457 21,700 -2,400 Descending Houston Center
12:08PM 27.1467 -97.1697 193° South 383 441 19,100 -2,340 Descending Houston Center
12:09PM 27.0567 -97.2178 205° Southwest 363 418 16,900 -2,100 Descending Houston Center
12:09PM 27.0192 -97.2433 211° Southwest 353 406 16,100 -840 Descending Houston Center
12:10PM 26.9536 -97.2806 207° Southwest 304 350 15,900 -360 Descending Houston Center
12:11PM 26.9064 -97.3081 207° Southwest 286 329 15,500 -2,880 Descending Houston Center
12:12PM 26.8169 -97.3597 207° Southwest 339 390 10,500 -2,880 Descending Houston Center
12:13PM 26.7450 -97.4386 224° Southwest 333 383 9,600 -1,320 Descending Houston Center
12:14PM 26.6803 -97.5103 225° Southwest 270 311 7,700 -1,740 Descending Houston Center
12:15PM 26.6275 -97.5644 223° Southwest 281 323 6,100 -1,440 Descending Houston Center
12:16PM 26.5583 -97.6025 206° Southwest 275 316 4,900 -1,380 Descending Houston Center
12:17PM 26.4881 -97.6367 204° Southwest 267 307 3,300 -1,440 Descending Houston Center
12:18PM 26.4239 -97.6567 196° South 255 293 2,000 -660 Descending Houston Center
12:19PM 26.3544 -97.6575 181° South 220 253 2,000 -360 Level Houston Center
12:20PM 26.3050 -97.6592 182° South 158 182 1,300 -720 Descending Houston Center
12:21PM 26.2672 -97.6594 180° South 126 145 600 14,580 Descending Houston Center
12:22PM 26.2261 -97.6586 179° South 136 157 32,000 28,980 Climbing Houston Center
12:24PM 26.2271 -97.6551 180° South  Level Estimated